Terminal Aerodrome Forecast
Issued by NWS Shreveport, LA

Home | Current Version | Previous Version | Text Only | Print | Product List | Glossary On
Versions: 1 2 3 4 5 6 7 8 9 10 11 12 13 14 15 16 17 18
000
FTUS44 KSHV 232200 AAC
TAFTXK
TAF AMD
KTXK 232245Z 2323/2418 VRB06KT P6SM BKN040 BKN250
      TEMPO 2323/2324 01040G65KT 1SM +TSRA SQ SCT035CB BKN090 OVC250
     FM240000 VRB04KT P6SM FEW035 SCT250
     FM240900 VRB03KT 6SM BR SCT030 SCT250
     FM241200 32002KT 4SM BR BKN030
     FM241600 03005KT P6SM BKN040=

USA.gov is the U.S. government's official web portal to all federal, state and local government web resources and services.